Time;durP1;ratioP1;P1;durP2;ratioP2;P2;SDS_P1;SDS_P2;PMS_P1;PMS_P2;Temp;Humidity;BMP_temperature;BMP_pressure;BME280_temperature;BME280_humidity;BME280_pressure;Samples;Min_cycle;Max_cycle;Signal;HPM_P1;HPM_P2
2021/03/07 00:02:20;;;;;;;10.67;9.23;;;6.10;40.80;;;;;;5070897;28;20460;-43
2021/03/07 00:04:45;;;;;;;10.70;9.40;;;6.10;40.90;;;;;;5069955;28;20442;-44
2021/03/07 00:07:11;;;;;;;13.57;9.60;;;6.10;40.90;;;;;;5069143;28;20194;-43
2021/03/07 00:09:37;;;;;;;12.53;9.20;;;6.10;40.80;;;;;;5068901;28;20663;-43
2021/03/07 00:12:02;;;;;;;12.20;9.10;;;6.10;40.90;;;;;;5069987;28;20196;-42
2021/03/07 00:14:28;;;;;;;13.10;10.37;;;6.00;41.00;;;;;;5069790;28;20250;-42
2021/03/07 00:16:53;;;;;;;16.30;11.40;;;6.00;41.10;;;;;;5070659;28;20196;-43
2021/03/07 00:19:19;;;;;;;16.13;10.77;;;6.00;41.50;;;;;;5070262;28;20555;-43
2021/03/07 00:21:44;;;;;;;16.73;11.40;;;6.10;42.10;;;;;;5070909;28;20204;-42
2021/03/07 00:24:10;;;;;;;14.97;11.33;;;6.00;42.60;;;;;;5070170;28;20258;-42
2021/03/07 00:26:36;;;;;;;11.57;8.97;;;6.00;42.00;;;;;;5078708;28;20223;-43
2021/03/07 00:29:01;;;;;;;9.67;8.30;;;6.00;42.00;;;;;;5066685;28;20721;-43
2021/03/07 00:31:27;;;;;;;9.10;8.10;;;6.00;41.70;;;;;;5072617;28;20627;-42
2021/03/07 00:33:53;;;;;;;9.43;7.80;;;5.90;41.40;;;;;;5074162;28;20200;-42
2021/03/07 00:36:18;;;;;;;12.30;7.90;;;5.70;41.40;;;;;;5071581;28;20241;-42
2021/03/07 00:38:44;;;;;;;10.47;8.90;;;5.80;41.70;;;;;;5073743;28;20223;-42
2021/03/07 00:41:10;;;;;;;13.97;10.23;;;5.80;41.60;;;;;;5073538;28;20219;-43
2021/03/07 00:43:36;;;;;;;10.83;8.40;;;5.80;41.50;;;;;;5074758;28;20751;-42
2021/03/07 00:46:03;;;;;;;14.10;9.37;;;5.80;41.50;;;;;;5072468;28;20430;-42
2021/03/07 00:48:28;;;;;;;13.90;10.43;;;5.80;41.40;;;;;;5073800;28;20195;-42
2021/03/07 00:50:54;;;;;;;13.63;9.63;;;5.80;41.50;;;;;;5072894;28;20430;-43
2021/03/07 00:53:20;;;;;;;16.33;8.50;;;5.70;41.50;;;;;;5073669;28;20186;-42
2021/03/07 00:55:45;;;;;;;12.20;8.67;;;5.70;41.50;;;;;;5072963;28;20192;-42
2021/03/07 00:58:11;;;;;;;8.50;7.13;;;5.60;41.60;;;;;;5073471;28;20203;-42
2021/03/07 01:00:36;;;;;;;11.00;8.40;;;5.50;41.70;;;;;;5073522;28;20227;-44
2021/03/07 01:03:02;;;;;;;10.47;7.90;;;5.50;41.90;;;;;;5072234;28;20188;-42
2021/03/07 01:05:28;;;;;;;10.93;8.40;;;5.40;41.90;;;;;;5071925;28;20180;-42
2021/03/07 01:07:54;;;;;;;10.40;8.10;;;5.40;41.90;;;;;;5073928;28;20195;-42
2021/03/07 01:10:25;;;;;;;12.90;8.10;;;5.50;41.90;;;;;;5073064;28;20427;-42
2021/03/07 01:12:51;;;;;;;13.60;8.33;;;5.50;41.80;;;;;;5073603;28;20200;-42
2021/03/07 01:15:26;;;;;;;11.87;8.87;;;5.50;41.70;;;;;;5072275;28;20495;-42
2021/03/07 01:17:52;;;;;;;11.30;7.90;;;5.50;41.70;;;;;;5073974;28;20845;-42
2021/03/07 01:20:18;;;;;;;11.83;8.37;;;5.50;41.80;;;;;;5072126;28;20484;-42
2021/03/07 01:22:45;;;;;;;12.50;8.67;;;5.40;42.00;;;;;;5073526;28;20191;-42
2021/03/07 01:25:11;;;;;;;10.50;8.00;;;5.20;42.60;;;;;;5072140;28;20454;-42
2021/03/07 01:27:37;;;;;;;14.03;8.57;;;5.10;42.70;;;;;;5072940;28;20442;-43
2021/03/07 01:30:08;;;;;;;12.30;9.87;;;5.20;42.80;;;;;;5072282;28;21162;-42
2021/03/07 01:32:34;;;;;;;10.40;8.30;;;5.10;42.80;;;;;;5071700;28;20460;-42
2021/03/07 01:34:59;;;;;;;10.70;7.27;;;5.20;42.70;;;;;;5072564;28;20446;-42
2021/03/07 01:37:25;;;;;;;10.70;7.67;;;5.10;42.50;;;;;;5072849;28;20184;-42
2021/03/07 01:39:51;;;;;;;10.10;7.37;;;5.20;42.50;;;;;;5072468;28;20682;-42
2021/03/07 01:42:17;;;;;;;8.27;7.10;;;5.10;42.40;;;;;;5072255;28;20199;-43
2021/03/07 01:44:42;;;;;;;9.50;7.47;;;4.90;42.90;;;;;;5071871;28;20437;-43
2021/03/07 01:47:08;;;;;;;13.30;8.10;;;4.80;43.00;;;;;;5072991;28;20195;-42
2021/03/07 01:49:35;;;;;;;11.20;7.70;;;4.90;43.20;;;;;;5071482;28;20212;-42
2021/03/07 01:52:00;;;;;;;10.57;7.97;;;5.00;43.40;;;;;;5072615;28;20557;-42
2021/03/07 01:54:26;;;;;;;10.73;7.17;;;5.10;43.30;;;;;;5071807;28;20423;-42
2021/03/07 01:56:53;;;;;;;9.63;7.43;;;5.10;43.10;;;;;;5072414;28;20199;-42
2021/03/07 01:59:24;;;;;;;10.03;7.60;;;5.10;42.80;;;;;;5070142;28;20583;-42
2021/03/07 02:01:50;;;;;;;9.87;7.80;;;5.10;43.00;;;;;;5072504;28;20813;-42
2021/03/07 02:04:16;;;;;;;9.83;7.53;;;5.10;43.00;;;;;;5071841;28;20445;-42
2021/03/07 02:06:42;;;;;;;10.00;8.03;;;5.00;43.00;;;;;;5072417;28;20422;-42
2021/03/07 02:09:08;;;;;;;10.47;7.73;;;5.00;42.90;;;;;;5076484;28;20434;-43
2021/03/07 02:11:38;;;;;;;11.13;7.70;;;5.00;42.90;;;;;;5071509;28;20566;-42
2021/03/07 02:14:06;;;;;;;13.77;8.80;;;5.00;43.00;;;;;;5071473;28;20949;-42
2021/03/07 02:16:33;;;;;;;13.33;9.33;;;5.00;42.90;;;;;;5071282;28;20546;-42
2021/03/07 02:18:59;;;;;;;11.73;8.10;;;5.00;42.80;;;;;;5071229;28;20928;-42
2021/03/07 02:21:49;;;;;;;13.03;8.73;;;4.90;42.80;;;;;;5068483;28;20519;-43
2021/03/07 02:24:16;;;;;;;10.20;7.10;;;4.60;43.00;;;;;;5072017;28;20802;-42
2021/03/07 02:26:48;;;;;;;9.87;7.60;;;4.60;43.50;;;;;;5073462;28;20426;-42
2021/03/07 02:29:15;;;;;;;8.80;6.53;;;4.60;43.70;;;;;;5071649;28;20447;-42
2021/03/07 02:31:45;;;;;;;10.83;7.00;;;4.60;44.60;;;;;;5071512;28;20495;-42
2021/03/07 02:34:17;;;;;;;16.53;6.87;;;4.60;44.10;;;;;;5071775;28;20835;-42
2021/03/07 02:36:49;;;;;;;8.57;7.07;;;4.50;44.00;;;;;;5071553;28;20430;-43
2021/03/07 02:39:18;;;;;;;10.80;7.40;;;4.50;44.30;;;;;;5071708;28;20477;-43
2021/03/07 02:41:44;;;;;;;7.40;6.57;;;4.60;44.50;;;;;;5074848;28;20937;-42
2021/03/07 02:44:13;;;;;;;9.10;7.03;;;4.60;44.60;;;;;;5077371;28;20438;-42
2021/03/07 02:46:41;;;;;;;9.00;6.17;;;4.60;44.50;;;;;;5071387;28;20438;-42
2021/03/07 02:49:14;;;;;;;9.83;6.50;;;4.60;44.30;;;;;;5071233;28;20446;-42
2021/03/07 02:51:41;;;;;;;7.60;6.50;;;4.60;44.10;;;;;;5071768;28;20422;-43
2021/03/07 02:54:09;;;;;;;8.90;6.00;;;4.60;44.10;;;;;;5068320;28;20559;-42
2021/03/07 02:56:36;;;;;;;9.20;6.57;;;4.50;44.00;;;;;;5070657;28;20517;-42
2021/03/07 02:59:09;;;;;;;7.90;6.43;;;4.60;44.00;;;;;;5071376;28;21022;-43
2021/03/07 03:01:37;;;;;;;8.80;7.03;;;4.50;43.70;;;;;;5070950;28;20493;-42
2021/03/07 03:04:03;;;;;;;10.00;7.27;;;4.60;43.60;;;;;;5071343;28;20434;-42
2021/03/07 03:06:29;;;;;;;9.57;7.10;;;4.60;43.50;;;;;;5070365;28;20929;-42
2021/03/07 03:08:58;;;;;;;10.77;7.20;;;4.10;44.30;;;;;;5067415;28;20521;-42
2021/03/07 03:11:26;;;;;;;8.57;6.93;;;4.00;44.90;;;;;;5070578;28;20426;-43
2021/03/07 03:13:53;;;;;;;9.33;7.30;;;4.00;44.90;;;;;;5070753;28;20430;-42
2021/03/07 03:16:28;;;;;;;10.20;7.30;;;4.10;44.70;;;;;;5075843;28;20928;-42
2021/03/07 03:18:54;;;;;;;10.57;8.23;;;4.20;44.60;;;;;;5070928;28;20961;-42
2021/03/07 03:21:20;;;;;;;7.77;6.93;;;4.10;44.20;;;;;;5062916;28;20423;-42
2021/03/07 03:23:47;;;;;;;8.20;6.00;;;4.10;44.50;;;;;;5070791;28;20505;-42
2021/03/07 03:26:13;;;;;;;7.77;6.17;;;4.20;44.60;;;;;;5070770;28;20509;-42
2021/03/07 03:28:40;;;;;;;8.10;6.17;;;4.30;44.40;;;;;;5070208;28;20445;-42
2021/03/07 03:31:06;;;;;;;7.73;6.53;;;3.90;45.00;;;;;;5070270;28;20544;-42
2021/03/07 03:33:31;;;;;;;10.73;6.00;;;3.90;45.40;;;;;;5071980;28;20434;-42
2021/03/07 03:35:57;;;;;;;8.73;6.30;;;3.80;45.00;;;;;;5069688;28;20475;-42
2021/03/07 03:38:37;;;;;;;9.97;6.10;;;3.70;45.10;;;;;;5071144;28;20192;-42
2021/03/07 03:41:04;;;;;;;10.33;6.70;;;3.70;45.20;;;;;;5070269;28;20530;-42
2021/03/07 03:43:30;;;;;;;7.30;5.63;;;3.50;45.50;;;;;;5070988;28;20445;-42
2021/03/07 03:46:00;;;;;;;10.90;6.77;;;3.50;45.90;;;;;;5070203;28;20478;-42
2021/03/07 03:48:32;;;;;;;9.13;6.53;;;3.10;45.90;;;;;;5069483;28;20560;-42
2021/03/07 03:50:59;;;;;;;8.80;6.60;;;3.00;46.90;;;;;;5070511;28;20517;-42
2021/03/07 03:53:25;;;;;;;8.07;7.00;;;3.20;46.90;;;;;;5070913;28;20448;-42
2021/03/07 03:55:53;;;;;;;9.60;6.43;;;3.10;46.90;;;;;;5070241;28;20430;-42
2021/03/07 03:58:26;;;;;;;9.53;7.10;;;3.30;46.70;;;;;;5070937;28;20442;-42
2021/03/07 04:00:54;;;;;;;7.83;5.80;;;3.30;46.20;;;;;;5070098;28;20502;-42
2021/03/07 04:03:21;;;;;;;8.60;6.00;;;3.50;45.80;;;;;;5070988;28;20434;-42
2021/03/07 04:05:49;;;;;;;6.93;5.67;;;3.30;45.90;;;;;;5073497;28;20936;-42
2021/03/07 04:08:16;;;;;;;9.57;6.90;;;3.30;46.00;;;;;;5075746;28;20445;-42
2021/03/07 04:10:43;;;;;;;10.27;6.63;;;3.30;45.80;;;;;;5073616;28;20509;-42
2021/03/07 04:13:11;;;;;;;6.40;5.80;;;3.30;45.90;;;;;;5074951;28;20426;-43
2021/03/07 04:15:39;;;;;;;11.33;7.00;;;3.40;45.70;;;;;;5073624;28;20441;-42
2021/03/07 04:18:06;;;;;;;8.07;5.90;;;3.50;45.50;;;;;;5055180;28;20450;-42
2021/03/07 04:20:32;;;;;;;8.30;6.00;;;3.40;45.60;;;;;;5073865;28;20485;-42
2021/03/07 04:22:58;;;;;;;7.17;6.10;;;3.00;45.90;;;;;;5074902;28;20787;-42
2021/03/07 04:25:23;;;;;;;7.93;6.10;;;2.80;46.70;;;;;;5073757;28;20242;-42
2021/03/07 04:27:50;;;;;;;7.43;6.27;;;2.60;47.30;;;;;;5067186;28;20546;-42
2021/03/07 04:30:16;;;;;;;7.20;5.70;;;2.70;47.50;;;;;;5072765;28;20314;-43
2021/03/07 04:32:44;;;;;;;8.40;6.17;;;2.70;47.30;;;;;;5074561;28;20434;-42
2021/03/07 04:35:12;;;;;;;9.43;6.53;;;2.80;47.20;;;;;;5073022;28;20445;-42
2021/03/07 04:37:37;;;;;;;8.23;6.60;;;2.90;47.10;;;;;;5073287;28;20529;-42
2021/03/07 04:40:04;;;;;;;9.63;6.40;;;3.20;46.90;;;;;;5073059;28;20572;-42
2021/03/07 04:42:29;;;;;;;10.97;6.30;;;3.30;46.60;;;;;;5074960;28;20242;-42
2021/03/07 04:44:55;;;;;;;9.93;7.17;;;3.20;46.30;;;;;;5071386;28;20824;-42
2021/03/07 04:47:21;;;;;;;9.50;7.30;;;3.30;46.50;;;;;;5073234;28;20188;-42
2021/03/07 04:49:46;;;;;;;9.07;7.17;;;3.20;46.50;;;;;;5072884;28;20196;-42
2021/03/07 04:52:12;;;;;;;8.43;5.63;;;3.20;46.60;;;;;;5074123;28;20275;-42
2021/03/07 04:54:38;;;;;;;7.37;6.10;;;3.40;46.30;;;;;;5073054;28;20680;-42
2021/03/07 04:57:04;;;;;;;7.10;5.63;;;3.30;46.00;;;;;;5073693;28;20247;-42
2021/03/07 04:59:30;;;;;;;5.93;5.23;;;3.40;45.80;;;;;;5073569;28;20253;-42
2021/03/07 05:01:56;;;;;;;9.07;5.90;;;3.30;45.70;;;;;;5073356;28;20483;-42
2021/03/07 05:04:22;;;;;;;15.03;6.57;;;3.30;45.90;;;;;;5072969;28;20419;-42
2021/03/07 05:06:48;;;;;;;7.43;6.27;;;3.30;45.80;;;;;;5073165;28;20437;-42
2021/03/07 05:09:13;;;;;;;7.13;5.53;;;3.20;45.90;;;;;;5073858;28;20572;-42
2021/03/07 05:11:39;;;;;;;8.50;5.63;;;3.00;46.20;;;;;;5071453;28;20579;-42
2021/03/07 05:14:05;;;;;;;6.20;5.60;;;3.00;46.50;;;;;;5073258;28;20275;-42
2021/03/07 05:16:32;;;;;;;7.33;5.53;;;3.10;46.50;;;;;;5076764;28;20798;-42
2021/03/07 05:18:58;;;;;;;7.80;7.00;;;3.20;46.40;;;;;;5071724;28;20968;-42
2021/03/07 05:21:24;;;;;;;9.83;6.13;;;3.10;46.50;;;;;;5063101;28;20423;-42
2021/03/07 05:23:50;;;;;;;7.33;6.57;;;3.20;46.40;;;;;;5072037;28;20200;-42
2021/03/07 05:26:15;;;;;;;8.17;6.70;;;3.20;46.30;;;;;;5072530;28;20432;-42
2021/03/07 05:28:42;;;;;;;11.40;7.13;;;3.20;46.30;;;;;;5073264;28;20226;-42
2021/03/07 05:31:07;;;;;;;8.67;7.30;;;3.20;46.20;;;;;;5072183;28;20232;-42
2021/03/07 05:33:33;;;;;;;7.23;6.20;;;3.20;46.20;;;;;;5073357;28;20430;-42
2021/03/07 05:35:58;;;;;;;9.00;6.33;;;3.20;46.30;;;;;;5072630;28;20552;-42
2021/03/07 05:38:25;;;;;;;6.93;5.30;;;3.10;46.10;;;;;;5072754;28;20253;-42
2021/03/07 05:40:50;;;;;;;7.73;5.90;;;3.10;46.30;;;;;;5070391;28;20742;-42
2021/03/07 05:43:18;;;;;;;7.10;6.30;;;3.00;46.20;;;;;;5073138;28;20514;-43
2021/03/07 05:45:44;;;;;;;8.47;6.50;;;3.10;46.40;;;;;;5072196;28;20632;-42
2021/03/07 05:48:10;;;;;;;7.77;6.43;;;3.20;46.30;;;;;;5072892;28;20431;-42
2021/03/07 05:50:36;;;;;;;9.90;6.97;;;3.10;46.10;;;;;;5072283;28;20437;-42
2021/03/07 05:53:02;;;;;;;8.80;6.80;;;3.20;46.40;;;;;;5073152;28;20230;-42
2021/03/07 05:55:29;;;;;;;8.63;5.73;;;3.30;46.30;;;;;;5072011;28;20769;-42
2021/03/07 05:57:59;;;;;;;10.00;6.80;;;3.30;46.10;;;;;;5072271;28;20231;-42
2021/03/07 06:00:25;;;;;;;8.10;6.00;;;3.20;46.10;;;;;;5071347;28;20604;-42
2021/03/07 06:02:51;;;;;;;7.70;6.13;;;3.20;46.20;;;;;;5072510;28;20509;-42
2021/03/07 06:05:17;;;;;;;7.37;6.33;;;3.30;46.20;;;;;;5071817;28;20430;-42
2021/03/07 06:07:43;;;;;;;10.90;6.70;;;3.40;46.20;;;;;;5069984;28;20200;-42
2021/03/07 06:10:13;;;;;;;9.60;6.87;;;3.40;46.10;;;;;;5071050;28;20438;-42
2021/03/07 06:12:39;;;;;;;9.03;6.57;;;3.50;46.20;;;;;;5072217;28;20441;-42
2021/03/07 06:15:07;;;;;;;9.10;6.40;;;3.50;46.20;;;;;;5069602;28;20791;-42
2021/03/07 06:17:49;;;;;;;8.13;5.97;;;3.60;46.00;;;;;;5069634;28;20450;-42
2021/03/07 06:20:17;;;;;;;8.70;5.70;;;3.60;45.80;;;;;;5070883;28;21046;-42
2021/03/07 06:22:59;;;;;;;9.37;6.50;;;3.70;45.70;;;;;;5073276;28;20536;-42
2021/03/07 06:25:26;;;;;;;9.80;5.97;;;3.70;45.70;;;;;;5071142;28;20441;-42
2021/03/07 06:27:53;;;;;;;7.60;6.20;;;3.70;45.60;;;;;;5071255;28;20529;-42
2021/03/07 06:30:23;;;;;;;10.70;7.93;;;3.70;45.50;;;;;;5071318;28;20470;-42
2021/03/07 06:32:54;;;;;;;9.10;7.50;;;3.70;45.60;;;;;;5071935;28;20791;-42
2021/03/07 06:35:34;;;;;;;7.90;6.87;;;3.80;45.70;;;;;;5068960;28;20466;-42
2021/03/07 06:38:02;;;;;;;7.77;6.23;;;3.90;45.60;;;;;;5072273;28;20422;-42
2021/03/07 06:40:31;;;;;;;7.83;6.30;;;3.80;45.70;;;;;;5071376;28;20490;-42
2021/03/07 06:42:58;;;;;;;12.47;6.43;;;3.70;46.00;;;;;;5071941;28;20838;-42
2021/03/07 06:45:34;;;;;;;12.57;6.70;;;3.70;46.30;;;;;;5070842;28;20433;-42
2021/03/07 06:47:59;;;;;;;9.27;6.67;;;4.00;47.70;;;;;;5071641;28;20483;-42
2021/03/07 06:50:25;;;;;;;9.33;6.73;;;4.60;51.40;;;;;;5071377;28;20454;-43
2021/03/07 06:52:53;;;;;;;8.30;5.87;;;5.20;51.60;;;;;;5071541;28;20191;-43
2021/03/07 06:55:22;;;;;;;8.43;6.20;;;5.70;48.50;;;;;;5070807;28;20226;-42
2021/03/07 06:57:48;;;;;;;9.73;7.73;;;5.70;45.20;;;;;;5071784;28;20492;-43
2021/03/07 07:00:15;;;;;;;6.73;5.97;;;6.00;46.00;;;;;;5071028;28;20477;-43
2021/03/07 07:03:00;;;;;;;7.93;6.40;;;6.50;45.20;;;;;;5070493;28;20196;-43
2021/03/07 07:05:42;;;;;;;7.50;6.17;;;6.80;42.90;;;;;;5067615;28;20489;-43
2021/03/07 07:08:08;;;;;;;6.57;5.97;;;7.00;41.60;;;;;;5070570;28;20434;-43
2021/03/07 07:10:49;;;;;;;6.93;5.90;;;7.10;42.10;;;;;;5069999;28;20800;-43
2021/03/07 07:13:15;;;;;;;7.87;5.77;;;7.50;41.40;;;;;;5070858;28;20437;-43
2021/03/07 07:15:59;;;;;;;7.33;5.10;;;7.80;41.00;;;;;;5071247;28;20438;-43
2021/03/07 07:18:26;;;;;;;8.40;6.40;;;8.20;40.00;;;;;;5071078;28;20446;-43
2021/03/07 07:20:53;;;;;;;8.97;7.00;;;8.30;38.90;;;;;;5071023;28;20965;-43
2021/03/07 07:23:20;;;;;;;9.10;6.90;;;8.50;38.50;;;;;;5070775;28;20430;-43
2021/03/07 07:25:46;;;;;;;9.70;6.93;;;8.80;38.60;;;;;;5070875;28;20425;-43
2021/03/07 07:28:11;;;;;;;8.13;6.67;;;9.10;38.20;;;;;;5049083;28;20803;-43
2021/03/07 07:30:37;;;;;;;8.77;7.40;;;9.30;37.30;;;;;;5068201;28;20469;-42
2021/03/07 07:33:07;;;;;;;7.70;6.20;;;9.50;36.60;;;;;;5070986;28;20207;-42
2021/03/07 07:35:34;;;;;;;8.27;6.37;;;9.70;36.10;;;;;;5070450;28;20521;-42
2021/03/07 07:38:04;;;;;;;7.70;6.73;;;9.90;35.80;;;;;;5071075;28;20437;-42
2021/03/07 07:40:42;;;;;;;9.10;6.77;;;10.00;34.70;;;;;;5073548;28;20487;-42
2021/03/07 07:43:08;;;;;;;7.37;6.40;;;10.10;34.20;;;;;;5075028;28;20820;-42
2021/03/07 07:45:37;;;;;;;8.50;7.00;;;10.20;33.90;;;;;;5071123;28;20434;-43
2021/03/07 07:48:03;;;;;;;7.93;6.13;;;10.30;33.80;;;;;;5075359;28;21190;-41
2021/03/07 07:50:29;;;;;;;6.80;6.10;;;10.40;33.60;;;;;;5074926;28;20437;-41
2021/03/07 07:52:59;;;;;;;8.90;6.57;;;10.50;33.50;;;;;;5072405;28;20508;-41
2021/03/07 07:55:44;;;;;;;7.50;6.70;;;10.60;33.50;;;;;;5037756;28;20652;-41
2021/03/07 07:58:10;;;;;;;7.57;6.00;;;10.70;33.60;;;;;;5068031;28;20434;-41
2021/03/07 08:00:54;;;;;;;8.60;7.57;;;10.80;33.20;;;;;;5073561;28;20524;-43
2021/03/07 08:03:40;;;;;;;10.13;7.83;;;10.80;33.20;;;;;;5072871;28;20457;-43
2021/03/07 08:06:07;;;;;;;9.07;6.80;;;10.90;33.10;;;;;;5072359;28;20462;-43
2021/03/07 08:08:35;;;;;;;8.07;6.70;;;11.00;33.10;;;;;;5075042;28;20430;-43
2021/03/07 08:11:03;;;;;;;9.50;7.40;;;11.00;32.70;;;;;;5073989;28;20430;-43
2021/03/07 08:13:29;;;;;;;11.50;7.63;;;11.00;32.70;;;;;;5072725;28;20500;-43
2021/03/07 08:15:58;;;;;;;7.20;6.40;;;11.00;32.60;;;;;;5072803;28;20499;-43
2021/03/07 08:18:44;;;;;;;7.23;6.53;;;11.00;32.80;;;;;;5069418;28;20333;-43
2021/03/07 08:21:10;;;;;;;8.43;6.90;;;10.90;32.80;;;;;;5072187;28;20442;-43
2021/03/07 08:23:54;;;;;;;9.77;7.50;;;11.30;33.80;;;;;;5071605;28;20441;-43
2021/03/07 08:26:19;;;;;;;9.00;7.33;;;11.00;33.40;;;;;;5068582;28;20496;-43
2021/03/07 08:28:45;;;;;;;7.50;6.70;;;10.90;33.30;;;;;;5072763;28;20442;-43
2021/03/07 08:31:19;;;;;;;10.70;6.97;;;10.90;33.40;;;;;;5071556;28;20227;-44
2021/03/07 08:33:46;;;;;;;7.17;6.17;;;11.00;33.40;;;;;;5069346;28;20658;-43
2021/03/07 08:36:18;;;;;;;7.40;6.23;;;11.00;33.50;;;;;;5071985;28;20430;-43
2021/03/07 08:38:52;;;;;;;8.90;6.13;;;10.90;33.40;;;;;;5071684;28;20854;-43
2021/03/07 08:41:24;;;;;;;6.70;6.03;;;10.90;33.80;;;;;;5069397;28;20454;-44
2021/03/07 08:43:52;;;;;;;8.17;6.20;;;11.00;34.10;;;;;;5074037;28;20440;-43
2021/03/07 08:46:21;;;;;;;7.20;6.43;;;11.00;34.60;;;;;;5069684;28;20438;-43
2021/03/07 08:48:52;;;;;;;8.63;6.50;;;11.10;34.00;;;;;;5065678;28;20921;-43
2021/03/07 08:51:28;;;;;;;6.83;6.20;;;11.20;33.60;;;;;;5069350;28;20450;-44
2021/03/07 08:54:01;;;;;;;7.70;5.90;;;11.10;33.70;;;;;;5073005;28;20434;-43
2021/03/07 08:56:27;;;;;;;8.00;6.97;;;11.00;33.50;;;;;;5061402;28;20440;-44
2021/03/07 08:58:53;;;;;;;8.20;6.60;;;11.00;33.90;;;;;;5072799;28;20867;-43
2021/03/07 09:01:19;;;;;;;7.77;6.60;;;11.00;33.80;;;;;;5060724;28;20521;-43
2021/03/07 09:03:56;;;;;;;7.30;6.20;;;11.00;34.80;;;;;;5072746;28;20195;-44
2021/03/07 09:06:26;;;;;;;7.83;6.30;;;11.10;35.90;;;;;;5062274;28;20188;-44
2021/03/07 09:09:21;;;;;;;7.57;6.17;;;11.20;35.10;;;;;;5073618;28;20422;-43
2021/03/07 09:11:57;;;;;;;6.80;6.10;;;11.40;34.90;;;;;;5072924;28;20525;-44
2021/03/07 09:14:35;;;;;;;7.53;5.67;;;11.50;34.60;;;;;;5072478;28;20501;-44
2021/03/07 09:17:04;;;;;;;6.53;5.83;;;11.60;34.10;;;;;;5060209;28;20525;-44
2021/03/07 09:19:33;;;;;;;6.43;5.90;;;11.70;33.90;;;;;;5071276;28;20878;-44
2021/03/07 09:22:17;;;;;;;7.87;5.87;;;11.80;33.70;;;;;;5071752;28;20434;-44
2021/03/07 09:25:09;;;;;;;5.80;5.23;;;12.00;33.20;;;;;;5071618;28;20480;-43
2021/03/07 09:27:38;;;;;;;6.90;5.57;;;12.00;32.60;;;;;;5063946;28;20437;-44
2021/03/07 09:30:11;;;;;;;5.93;5.33;;;11.90;32.70;;;;;;5072583;28;20864;-44
2021/03/07 09:32:43;;;;;;;6.70;5.37;;;12.00;33.00;;;;;;5072853;28;20472;-44
2021/03/07 09:35:36;;;;;;;7.10;5.47;;;12.10;33.00;;;;;;5072376;28;20438;-43
2021/03/07 09:38:06;;;;;;;5.90;5.30;;;12.30;34.10;;;;;;5067438;28;20542;-44
2021/03/07 09:40:38;;;;;;;8.00;6.17;;;12.50;32.80;;;;;;5063352;28;20972;-43
2021/03/07 09:43:12;;;;;;;6.23;5.63;;;11.60;32.80;;;;;;5067447;28;20918;-44
2021/03/07 09:45:59;;;;;;;8.53;6.70;;;11.90;33.70;;;;;;5062940;28;20434;-44
2021/03/07 09:48:33;;;;;;;6.77;6.10;;;12.30;34.30;;;;;;5063886;28;20517;-43
2021/03/07 09:51:02;;;;;;;6.83;6.10;;;12.70;32.90;;;;;;5072462;28;20787;-44
2021/03/07 09:53:29;;;;;;;6.90;6.20;;;12.80;32.40;;;;;;5062941;28;20806;-44
2021/03/07 09:55:55;;;;;;;6.43;5.43;;;13.00;32.20;;;;;;5068263;28;21118;-44
2021/03/07 09:58:20;;;;;;;7.30;6.03;;;13.30;31.80;;;;;;5072574;28;20987;-44
2021/03/07 10:00:50;;;;;;;7.53;6.73;;;13.50;31.60;;;;;;5069205;28;20490;-45
2021/03/07 10:03:26;;;;;;;8.20;7.33;;;13.60;31.30;;;;;;5052463;28;20960;-44
2021/03/07 10:06:20;;;;;;;7.53;6.47;;;13.60;31.80;;;;;;5067716;28;20526;-44
2021/03/07 10:08:47;;;;;;;8.17;7.30;;;13.80;32.60;;;;;;5072754;28;20531;-44
2021/03/07 10:11:22;;;;;;;6.60;5.87;;;13.90;31.90;;;;;;5071589;28;20442;-45
2021/03/07 10:14:03;;;;;;;8.20;7.00;;;14.10;32.10;;;;;;5056867;28;20866;-44
2021/03/07 10:16:31;;;;;;;9.13;7.37;;;14.40;31.60;;;;;;5071297;28;20477;-43
2021/03/07 10:19:04;;;;;;;7.77;7.00;;;14.50;31.40;;;;;;5068469;28;20466;-44
2021/03/07 10:21:31;;;;;;;7.50;6.70;;;14.60;31.90;;;;;;5069689;28;20537;-44
2021/03/07 10:24:08;;;;;;;7.70;7.00;;;14.60;30.90;;;;;;5061400;28;20833;-45
2021/03/07 10:26:35;;;;;;;8.97;8.13;;;14.70;31.20;;;;;;5064618;28;20470;-45
2021/03/07 10:29:19;;;;;;;8.53;7.70;;;14.60;31.10;;;;;;5067819;28;20521;-45
2021/03/07 10:32:10;;;;;;;8.13;7.30;;;14.60;30.80;;;;;;5066403;28;20489;-44
2021/03/07 10:34:42;;;;;;;9.07;7.17;;;14.80;30.90;;;;;;5066653;28;20446;-41
2021/03/07 10:37:09;;;;;;;8.87;7.73;;;14.90;31.10;;;;;;5064800;28;20458;-42
2021/03/07 10:39:35;;;;;;;8.70;7.80;;;14.80;30.90;;;;;;5071322;28;21024;-42
2021/03/07 10:42:07;;;;;;;11.67;9.20;;;15.10;31.90;;;;;;5069361;28;20836;-41
2021/03/07 10:44:33;;;;;;;10.60;8.47;;;15.30;32.00;;;;;;5057103;28;20478;-44
2021/03/07 10:47:21;;;;;;;9.40;8.50;;;15.50;30.90;;;;;;5069690;28;20882;-44
2021/03/07 10:49:50;;;;;;;9.10;8.20;;;15.50;30.00;;;;;;5070907;28;20878;-44
2021/03/07 10:52:17;;;;;;;10.53;8.60;;;15.30;29.90;;;;;;5071091;28;20442;-43
2021/03/07 10:54:43;;;;;;;9.57;8.57;;;15.30;30.20;;;;;;5069691;28;20441;-44
2021/03/07 10:57:12;;;;;;;9.83;8.83;;;15.30;30.60;;;;;;5069707;28;20430;-44
2021/03/07 10:59:38;;;;;;;9.60;8.60;;;15.30;30.80;;;;;;5058773;28;20734;-43
2021/03/07 11:02:09;;;;;;;9.50;8.60;;;15.20;30.80;;;;;;5070550;28;20816;-44
2021/03/07 11:04:34;;;;;;;11.10;9.80;;;15.10;30.60;;;;;;5070296;28;21327;-43
2021/03/07 11:07:02;;;;;;;9.87;8.73;;;15.10;30.70;;;;;;5069766;28;20548;-44
2021/03/07 11:09:28;;;;;;;10.90;9.80;;;14.90;30.80;;;;;;5069667;28;20257;-43
2021/03/07 11:11:54;;;;;;;9.77;8.50;;;15.00;30.90;;;;;;5062720;28;20438;-43
2021/03/07 11:14:19;;;;;;;11.67;9.30;;;15.10;31.20;;;;;;5056594;28;20243;-44
2021/03/07 11:16:45;;;;;;;9.97;8.87;;;15.20;32.10;;;;;;5067367;28;20196;-44
2021/03/07 11:19:11;;;;;;;10.50;9.50;;;15.30;31.40;;;;;;5071378;28;20219;-44
2021/03/07 11:21:36;;;;;;;10.87;9.67;;;15.50;30.90;;;;;;5068785;28;20241;-45
2021/03/07 11:24:02;;;;;;;10.87;9.77;;;15.50;31.20;;;;;;5069942;28;20678;-44
2021/03/07 11:26:28;;;;;;;9.80;8.80;;;15.60;31.50;;;;;;5070320;28;20192;-42
2021/03/07 11:28:54;;;;;;;9.73;8.73;;;15.60;31.50;;;;;;5068870;28;20449;-44
2021/03/07 11:31:19;;;;;;;10.50;8.93;;;15.70;31.30;;;;;;5069361;28;20231;-43
2021/03/07 11:33:45;;;;;;;9.53;8.60;;;15.80;30.40;;;;;;5063436;28;20204;-43
2021/03/07 11:36:10;;;;;;;10.40;8.77;;;15.90;30.60;;;;;;5062796;28;20194;-44
2021/03/07 11:38:36;;;;;;;10.20;8.77;;;16.00;31.80;;;;;;5064374;28;20656;-44
2021/03/07 11:41:02;;;;;;;11.60;9.87;;;16.10;31.20;;;;;;5069112;28;20216;-44
2021/03/07 11:43:27;;;;;;;9.60;8.70;;;16.10;31.70;;;;;;5058877;28;20552;-44
2021/03/07 11:45:53;;;;;;;12.77;9.07;;;16.20;31.80;;;;;;5068814;28;20180;-44
2021/03/07 11:48:18;;;;;;;10.30;9.30;;;16.20;30.60;;;;;;5058948;28;20651;-44
2021/03/07 11:50:44;;;;;;;10.13;9.13;;;16.10;29.80;;;;;;5068982;28;20192;-44
2021/03/07 11:53:09;;;;;;;10.80;9.43;;;16.10;30.20;;;;;;5058794;28;20200;-44
2021/03/07 11:55:35;;;;;;;11.00;9.60;;;16.20;31.20;;;;;;5069403;28;20274;-44
2021/03/07 11:58:01;;;;;;;10.90;9.70;;;16.40;31.30;;;;;;5062871;28;20193;-44
2021/03/07 12:00:26;;;;;;;13.57;10.97;;;16.60;30.00;;;;;;5063575;28;20219;-44
2021/03/07 12:02:52;;;;;;;10.50;9.10;;;16.80;30.00;;;;;;5069195;28;20192;-44
2021/03/07 12:05:18;;;;;;;11.53;9.30;;;16.90;30.40;;;;;;5070254;28;20195;-44
2021/03/07 12:07:43;;;;;;;9.77;8.77;;;16.90;29.20;;;;;;5066516;28;20188;-43
2021/03/07 12:10:09;;;;;;;10.63;9.53;;;16.80;30.00;;;;;;5069465;28;20235;-42
2021/03/07 12:12:35;;;;;;;11.37;10.13;;;16.90;29.60;;;;;;5062933;28;20196;-42
2021/03/07 12:15:01;;;;;;;11.40;10.07;;;17.00;29.40;;;;;;5062603;28;20438;-42
2021/03/07 12:17:26;;;;;;;9.63;8.47;;;17.20;29.40;;;;;;5057372;28;20192;-42
2021/03/07 12:19:52;;;;;;;9.73;8.67;;;17.40;28.90;;;;;;5069976;28;20478;-42
2021/03/07 12:22:18;;;;;;;12.33;9.27;;;17.50;29.10;;;;;;5058065;28;20196;-42
2021/03/07 12:24:43;;;;;;;11.07;9.87;;;17.50;28.40;;;;;;5069462;28;20216;-43
2021/03/07 12:27:10;;;;;;;9.87;8.97;;;17.50;27.90;;;;;;5060630;28;20196;-42
2021/03/07 12:29:36;;;;;;;10.50;9.13;;;17.50;28.50;;;;;;5072171;28;20607;-42
2021/03/07 12:32:06;;;;;;;10.47;9.47;;;17.70;28.70;;;;;;5072036;28;20446;-43
2021/03/07 12:34:33;;;;;;;10.43;9.43;;;17.60;28.00;;;;;;5073226;28;20430;-42
2021/03/07 12:36:59;;;;;;;10.70;9.53;;;17.50;28.20;;;;;;5061953;28;20852;-42
2021/03/07 12:39:25;;;;;;;9.53;8.57;;;17.20;28.60;;;;;;5072280;28;20560;-42
2021/03/07 12:41:50;;;;;;;10.13;9.23;;;17.30;29.00;;;;;;5074633;28;20785;-43
2021/03/07 12:44:16;;;;;;;12.23;9.30;;;17.60;28.70;;;;;;5072481;28;20211;-42
2021/03/07 12:46:42;;;;;;;7.50;6.67;;;17.70;27.90;;;;;;5070652;28;20192;-42
2021/03/07 12:49:08;;;;;;;6.80;5.90;;;17.70;29.40;;;;;;5072640;28;20694;-42
2021/03/07 12:51:34;;;;;;;7.60;6.80;;;18.00;31.00;;;;;;5071575;28;20540;-42
2021/03/07 12:54:00;;;;;;;9.03;6.03;;;18.30;30.00;;;;;;5073433;28;20433;-42
2021/03/07 12:56:26;;;;;;;8.20;7.30;;;18.70;30.30;;;;;;5065344;28;20447;-42